createdAt,value
2018-10-18T00:03:38.228Z,33.25
2018-10-18T00:08:41.636Z,31.50
2018-10-18T00:13:45.113Z,32.00
2018-10-18T00:18:48.533Z,33.00
2018-10-18T00:23:51.983Z,30.60
2018-10-18T00:28:55.392Z,31.00
2018-10-18T00:33:58.808Z,32.60
2018-10-18T00:39:02.241Z,32.60
2018-10-18T00:44:06.327Z,32.25
2018-10-18T00:49:09.736Z,32.25
2018-10-18T00:54:13.224Z,33.00
2018-10-18T00:59:16.581Z,32.00
2018-10-18T01:04:20.007Z,30.00
2018-10-18T01:09:23.425Z,33.00
2018-10-18T01:14:27.464Z,31.00
2018-10-18T01:19:32.361Z,30.40
2018-10-18T01:24:36.596Z,31.00
2018-10-18T01:29:40.014Z,31.00
2018-10-18T01:34:43.436Z,29.50
2018-10-18T01:39:46.847Z,28.40
2018-10-18T01:44:50.283Z,31.50
2018-10-18T01:49:53.721Z,31.75
2018-10-18T01:54:57.300Z,28.75
2018-10-18T02:00:00.778Z,33.00
2018-10-18T02:05:04.164Z,30.25
2018-10-18T02:10:07.825Z,30.80
2018-10-18T02:15:11.744Z,29.20
2018-10-18T02:20:15.161Z,31.25
2018-10-18T02:25:18.641Z,31.80
2018-10-18T02:30:22.195Z,29.50
2018-10-18T02:35:25.508Z,30.00
2018-10-18T02:40:29.264Z,31.75
2018-10-18T02:45:32.668Z,30.00
2018-10-18T02:50:36.068Z,30.00
2018-10-18T02:55:39.484Z,31.50
2018-10-18T03:00:42.911Z,31.20
2018-10-18T03:05:46.321Z,28.00
2018-10-18T03:10:49.738Z,30.75
2018-10-18T03:15:53.153Z,32.00
2018-10-18T03:20:56.571Z,34.25
2018-10-18T03:25:59.968Z,30.75
2018-10-18T03:31:03.375Z,30.25
2018-10-18T03:36:06.834Z,31.00
2018-10-18T03:41:10.204Z,31.00
2018-10-18T03:46:13.633Z,29.00
2018-10-18T03:51:17.049Z,29.00
2018-10-18T03:56:20.448Z,31.25
2018-10-18T04:01:23.861Z,30.20
2018-10-18T04:06:27.274Z,31.25
2018-10-18T04:11:30.684Z,30.80
2018-10-18T04:16:34.097Z,33.25
2018-10-18T04:21:37.506Z,30.50
2018-10-18T04:26:40.917Z,32.60
2018-10-18T04:31:44.327Z,30.75
2018-10-18T04:36:47.764Z,32.00
2018-10-18T04:41:51.166Z,33.00
2018-10-18T04:46:54.568Z,30.75
2018-10-18T04:51:57.982Z,31.00
2018-10-18T04:57:01.486Z,31.25
2018-10-18T05:02:05.053Z,32.20
2018-10-18T05:07:08.507Z,33.25
2018-10-18T05:12:11.910Z,33.60
2018-10-18T05:17:15.330Z,32.00
2018-10-18T05:22:18.753Z,30.40
2018-10-18T05:27:22.169Z,31.50
2018-10-18T05:32:25.816Z,30.75
2018-10-18T05:37:29.258Z,33.75
2018-10-18T05:42:32.656Z,36.50
2018-10-18T05:47:36.076Z,36.00
2018-10-18T05:52:39.593Z,37.00
2018-10-18T05:57:43.069Z,39.00
2018-10-18T06:02:46.775Z,39.25
2018-10-18T06:07:50.180Z,39.50
2018-10-18T06:12:53.875Z,39.50
2018-10-18T06:17:57.254Z,40.50
2018-10-18T06:23:00.718Z,41.00
2018-10-18T06:28:04.097Z,42.80
2018-10-18T06:33:07.544Z,43.25
2018-10-18T06:38:10.944Z,44.00
2018-10-18T06:43:14.427Z,45.50
2018-10-18T06:48:17.796Z,44.60
2018-10-18T06:53:21.211Z,45.00
2018-10-18T06:58:24.625Z,47.50
2018-10-18T07:03:28.041Z,47.40
2018-10-18T07:08:31.452Z,46.25
2018-10-18T07:13:34.893Z,46.50
2018-10-18T07:18:38.318Z,47.00
2018-10-18T07:23:41.724Z,47.50
2018-10-18T07:28:45.147Z,47.00
2018-10-18T07:33:48.564Z,48.00
2018-10-18T07:38:51.973Z,43.80
2018-10-18T07:43:55.377Z,43.00
2018-10-18T07:48:58.789Z,45.00
2018-10-18T07:54:02.304Z,45.00
2018-10-18T07:59:05.849Z,44.75
2018-10-18T08:04:09.259Z,55.75
2018-10-18T08:09:13.860Z,62.00
2018-10-18T08:14:17.273Z,60.00
2018-10-18T08:19:20.744Z,63.00
2018-10-18T08:24:24.156Z,54.60
2018-10-18T08:29:27.569Z,52.00
2018-10-18T08:34:31.018Z,51.00
2018-10-18T08:39:34.424Z,50.00
2018-10-18T08:44:37.915Z,48.00
2018-10-18T08:49:41.310Z,49.00
2018-10-18T08:54:44.765Z,43.75
2018-10-18T08:59:48.182Z,43.25
2018-10-18T09:04:51.617Z,44.75
2018-10-18T09:09:55.070Z,45.50
2018-10-18T09:14:58.507Z,47.00
2018-10-18T09:20:01.949Z,45.60
2018-10-18T09:25:07.054Z,44.80
2018-10-18T09:30:11.911Z,46.00
2018-10-18T09:35:15.321Z,44.75
2018-10-18T09:40:18.774Z,46.75
2018-10-18T09:45:22.232Z,46.33
2018-10-18T09:50:25.673Z,45.80
2018-10-18T09:55:29.157Z,47.75
2018-10-18T10:00:37.958Z,46.25
2018-10-18T10:05:41.596Z,48.25
2018-10-18T10:10:45.024Z,46.50
2018-10-18T10:15:48.470Z,44.25
2018-10-18T10:20:51.909Z,44.00
2018-10-18T10:25:55.345Z,41.25
2018-10-18T10:30:58.843Z,43.00
2018-10-18T10:36:02.236Z,43.50
2018-10-18T10:41:06.096Z,43.25
2018-10-18T10:46:09.503Z,44.00
2018-10-18T10:51:13.004Z,43.25
2018-10-18T10:56:16.456Z,45.25
2018-10-18T11:01:20.885Z,47.20
2018-10-18T11:06:24.592Z,48.75
2018-10-18T11:11:28.028Z,46.75
2018-10-18T11:16:31.460Z,47.50
2018-10-18T11:21:34.918Z,46.00
2018-10-18T11:26:38.367Z,47.75
2018-10-18T11:31:41.809Z,48.40
2018-10-18T11:36:45.253Z,46.75
2018-10-18T11:41:48.731Z,47.00
2018-10-18T11:46:52.181Z,50.00
2018-10-18T11:51:55.669Z,45.75
2018-10-18T11:56:59.140Z,46.75
2018-10-18T12:02:02.641Z,47.50
2018-10-18T12:07:06.529Z,47.20
2018-10-18T12:12:09.974Z,44.80
2018-10-18T12:17:13.571Z,46.50
2018-10-18T12:22:16.981Z,45.20
2018-10-18T12:27:20.438Z,45.50
2018-10-18T12:32:23.993Z,44.60
2018-10-18T12:37:27.446Z,44.00
2018-10-18T12:42:31.204Z,45.80
2018-10-18T12:47:34.633Z,43.00
2018-10-18T12:52:38.077Z,44.00
2018-10-18T12:57:41.534Z,41.75
2018-10-18T13:02:44.974Z,42.60
2018-10-18T13:07:48.451Z,40.00
2018-10-18T13:12:51.887Z,41.20
2018-10-18T13:17:55.423Z,39.75
2018-10-18T13:22:58.847Z,38.80
2018-10-18T13:28:02.289Z,36.00
2018-10-18T13:33:06.110Z,37.00
2018-10-18T13:38:09.616Z,34.00
2018-10-18T13:43:13.024Z,35.80
2018-10-18T13:48:16.534Z,37.25
2018-10-18T13:53:19.946Z,34.80
2018-10-18T13:58:35.831Z,34.00
2018-10-18T14:03:39.275Z,33.25
2018-10-18T14:08:42.874Z,31.75
2018-10-18T14:13:46.309Z,28.60
2018-10-18T14:18:49.768Z,31.60
2018-10-18T14:23:53.215Z,32.20
2018-10-18T14:28:56.775Z,28.50
2018-10-18T14:34:00.211Z,29.50
2018-10-18T14:39:03.725Z,30.75
2018-10-18T14:44:07.504Z,30.40
2018-10-18T14:49:10.921Z,31.80
2018-10-18T14:54:14.401Z,28.25
2018-10-18T14:59:19.150Z,28.00
2018-10-18T15:04:22.637Z,27.25
2018-10-18T15:09:26.494Z,30.20
2018-10-18T15:14:29.977Z,25.00
2018-10-18T15:19:33.420Z,26.75
2018-10-18T15:24:36.912Z,27.40
2018-10-18T15:29:40.405Z,28.50
2018-10-18T15:34:43.847Z,28.75
2018-10-18T15:39:47.309Z,24.00
2018-10-18T15:44:51.435Z,25.75
2018-10-18T15:49:54.871Z,27.40
2018-10-18T15:54:58.304Z,24.60
2018-10-18T16:00:01.748Z,25.00
2018-10-18T16:05:06.682Z,24.80
2018-10-18T16:10:10.476Z,24.80
2018-10-18T16:15:13.910Z,28.40
2018-10-18T16:20:17.413Z,30.00
2018-10-18T16:25:20.838Z,27.00
2018-10-18T16:30:24.469Z,25.00
2018-10-18T16:35:27.898Z,27.75
2018-10-18T16:40:31.329Z,25.75
2018-10-18T16:45:34.786Z,25.60
2018-10-18T16:50:38.204Z,35.00
2018-10-18T16:55:41.633Z,28.40
2018-10-18T17:00:45.086Z,24.00
2018-10-18T17:05:48.579Z,25.00
2018-10-18T17:10:51.969Z,24.20
2018-10-18T17:15:55.425Z,28.25
2018-10-18T17:20:58.988Z,24.40
2018-10-18T17:26:02.417Z,22.50
2018-10-18T17:31:05.963Z,22.50
2018-10-18T17:36:09.445Z,22.00
2018-10-18T17:41:12.894Z,23.80
2018-10-18T17:46:16.448Z,22.75
2018-10-18T17:51:19.794Z,20.40
2018-10-18T17:56:23.227Z,20.00
2018-10-18T18:01:26.694Z,20.60
2018-10-18T18:06:30.343Z,19.00
2018-10-18T18:11:33.639Z,21.00
2018-10-18T18:16:37.106Z,17.00
2018-10-18T18:21:40.517Z,17.75
2018-10-18T18:26:45.501Z,18.25
2018-10-18T18:31:47.422Z,20.25
2018-10-18T18:36:50.911Z,18.80
2018-10-18T18:41:54.357Z,18.50
2018-10-18T18:46:57.817Z,20.80
2018-10-18T18:52:01.237Z,18.50
2018-10-18T18:57:04.724Z,17.75
2018-10-18T19:02:08.130Z,17.75
2018-10-18T19:07:11.567Z,17.25
2018-10-18T19:12:15.055Z,15.25
2018-10-18T19:17:18.485Z,16.50
2018-10-18T19:22:21.905Z,16.00
2018-10-18T19:27:25.362Z,17.25
2018-10-18T19:32:28.801Z,17.20
2018-10-18T19:37:32.219Z,15.25
2018-10-18T19:42:35.698Z,17.20
2018-10-18T19:47:39.542Z,15.00
2018-10-18T19:52:43.044Z,16.60
2018-10-18T19:57:46.409Z,17.50
2018-10-18T20:02:49.838Z,17.00
2018-10-18T20:07:53.295Z,16.00
2018-10-18T20:12:56.745Z,15.00
2018-10-18T20:18:00.568Z,15.75
2018-10-18T20:23:03.951Z,13.80
2018-10-18T20:28:07.397Z,13.00
2018-10-18T20:33:10.846Z,13.00
2018-10-18T20:38:14.254Z,15.00
2018-10-18T20:43:17.660Z,14.00
2018-10-18T20:48:21.081Z,14.00
2018-10-18T20:53:24.480Z,15.00
2018-10-18T20:58:27.972Z,14.20
2018-10-18T21:03:31.551Z,13.25
2018-10-18T21:08:35.010Z,14.75
2018-10-18T21:13:38.434Z,12.75
2018-10-18T21:18:41.869Z,13.25
2018-10-18T21:23:45.339Z,13.00
2018-10-18T21:28:48.831Z,14.00
2018-10-18T21:33:52.536Z,11.80
2018-10-18T21:38:55.970Z,13.00
2018-10-18T21:43:59.391Z,15.00
2018-10-18T21:49:02.831Z,12.25
2018-10-18T21:54:06.654Z,14.00
2018-10-18T21:59:10.225Z,12.75
2018-10-18T22:04:13.898Z,11.00
2018-10-18T22:09:17.703Z,12.75
2018-10-18T22:14:21.280Z,11.80
2018-10-18T22:19:24.779Z,11.00
2018-10-18T22:24:28.290Z,13.25
2018-10-18T22:29:31.822Z,10.00
2018-10-18T22:34:35.370Z,11.25
2018-10-18T22:39:38.791Z,10.25
2018-10-18T22:44:42.329Z,8.00
2018-10-18T22:49:45.834Z,10.00
2018-10-18T22:54:49.308Z,9.25
2018-10-18T22:59:52.737Z,8.50
2018-10-18T23:04:56.191Z,10.60
2018-10-18T23:09:59.757Z,8.75
2018-10-18T23:15:03.364Z,8.25
2018-10-18T23:20:07.491Z,9.00
2018-10-18T23:25:10.918Z,8.75
2018-10-18T23:30:14.326Z,8.25
2018-10-18T23:35:17.738Z,11.00
2018-10-18T23:40:21.261Z,8.60
2018-10-18T23:45:24.703Z,8.40
2018-10-18T23:50:28.131Z,10.00
2018-10-18T23:55:31.549Z,7.00
